createdAt,value
2018-05-27T00:00:22.163Z,997.28
2018-05-27T00:01:22.336Z,997.29
2018-05-27T00:02:22.524Z,997.31
2018-05-27T00:03:22.705Z,997.28
2018-05-27T00:04:22.879Z,997.25
2018-05-27T00:05:23.064Z,997.25
2018-05-27T00:06:23.241Z,997.26
2018-05-27T00:07:23.421Z,997.26
2018-05-27T00:08:23.601Z,997.27
2018-05-27T00:09:23.781Z,997.28
2018-05-27T00:10:23.967Z,997.27
2018-05-27T00:11:24.143Z,997.26
2018-05-27T00:12:24.328Z,997.29
2018-05-27T00:13:24.504Z,997.26
2018-05-27T00:14:24.685Z,997.27
2018-05-27T00:15:24.865Z,997.27
2018-05-27T00:16:25.042Z,997.22
2018-05-27T00:17:25.226Z,997.23
2018-05-27T00:18:25.418Z,997.26
2018-05-27T00:19:25.598Z,997.21
2018-05-27T00:20:25.769Z,997.23
2018-05-27T00:21:25.950Z,997.17
2018-05-27T00:22:26.130Z,997.15
2018-05-27T00:23:26.311Z,997.16
2018-05-27T00:24:26.492Z,997.14
2018-05-27T00:25:26.672Z,997.08
2018-05-27T00:26:26.861Z,997.08
2018-05-27T00:27:27.045Z,997.07
2018-05-27T00:28:27.217Z,997.09
2018-05-27T00:29:27.396Z,997.08
2018-05-27T00:30:27.577Z,997.10
2018-05-27T00:31:27.767Z,997.09
2018-05-27T00:32:27.947Z,997.07
2018-05-27T00:33:28.139Z,997.03
2018-05-27T00:34:28.311Z,997.03
2018-05-27T00:35:28.491Z,996.97
2018-05-27T00:36:28.671Z,996.98
2018-05-27T00:37:28.860Z,996.94
2018-05-27T00:38:29.042Z,996.96
2018-05-27T00:39:29.221Z,996.96
2018-05-27T00:40:29.405Z,996.95
2018-05-27T00:41:29.592Z,996.92
2018-05-27T00:42:29.766Z,996.93
2018-05-27T00:43:29.947Z,996.96
2018-05-27T00:44:30.119Z,996.91
2018-05-27T00:45:30.297Z,996.97
2018-05-27T00:46:30.472Z,996.91
2018-05-27T00:47:30.663Z,996.91
2018-05-27T00:48:30.838Z,996.90
2018-05-27T00:49:31.019Z,996.92
2018-05-27T00:50:31.205Z,996.90
2018-05-27T00:51:31.386Z,996.90
2018-05-27T00:52:31.564Z,996.92
2018-05-27T00:53:31.745Z,996.91
2018-05-27T00:54:31.929Z,996.90
2018-05-27T00:55:32.112Z,996.89
2018-05-27T00:56:32.298Z,996.87
2018-05-27T00:57:32.471Z,996.90
2018-05-27T00:58:32.656Z,996.89
2018-05-27T00:59:32.835Z,996.85
2018-05-27T01:00:33.025Z,996.87
2018-05-27T01:01:33.201Z,996.83
2018-05-27T01:02:33.381Z,996.84
2018-05-27T01:03:33.562Z,996.82
2018-05-27T01:04:33.744Z,996.80
2018-05-27T01:05:33.934Z,996.78
2018-05-27T01:06:34.109Z,996.80
2018-05-27T01:07:34.290Z,996.81
2018-05-27T01:08:34.474Z,996.77
2018-05-27T01:09:34.654Z,996.77
2018-05-27T01:10:34.841Z,996.76
2018-05-27T01:11:35.019Z,996.75
2018-05-27T01:12:35.206Z,996.73
2018-05-27T01:13:35.384Z,996.74
2018-05-27T01:14:35.563Z,996.75
2018-05-27T01:15:35.739Z,996.71
2018-05-27T01:16:35.921Z,996.70
2018-05-27T01:17:36.106Z,996.67
2018-05-27T01:18:36.291Z,996.67
2018-05-27T01:19:36.467Z,996.66
2018-05-27T01:20:36.647Z,996.69
2018-05-27T01:21:36.830Z,996.67
2018-05-27T01:22:37.034Z,996.64
2018-05-27T01:23:37.216Z,996.64
2018-05-27T01:24:37.408Z,996.63
2018-05-27T01:25:37.589Z,996.63
2018-05-27T01:26:37.766Z,996.59
2018-05-27T01:27:37.941Z,996.59
2018-05-27T01:28:38.114Z,996.60
2018-05-27T01:29:38.287Z,996.60
2018-05-27T01:30:38.464Z,996.61
2018-05-27T01:31:38.644Z,996.64
2018-05-27T01:32:38.823Z,996.65
2018-05-27T01:33:39.001Z,996.64
2018-05-27T01:34:39.187Z,996.60
2018-05-27T01:35:39.363Z,996.61
2018-05-27T01:36:39.543Z,996.60
2018-05-27T01:37:39.727Z,996.61
2018-05-27T01:38:39.907Z,996.60
2018-05-27T01:39:40.092Z,996.60
2018-05-27T01:40:40.274Z,996.58
2018-05-27T01:41:40.450Z,996.61
2018-05-27T01:42:40.635Z,996.64
2018-05-27T01:43:40.808Z,996.60
2018-05-27T01:44:40.991Z,996.63
2018-05-27T01:45:41.173Z,996.62
2018-05-27T01:46:41.352Z,996.58
2018-05-27T01:47:41.533Z,996.57
2018-05-27T01:48:41.707Z,996.56
2018-05-27T01:49:41.883Z,996.55
2018-05-27T01:50:42.070Z,996.56
2018-05-27T01:51:42.272Z,996.58
2018-05-27T01:52:42.441Z,996.55
2018-05-27T01:53:42.626Z,996.59
2018-05-27T01:54:42.804Z,996.58
2018-05-27T01:55:42.985Z,996.60
2018-05-27T01:56:43.163Z,996.58
2018-05-27T01:57:43.343Z,996.51
2018-05-27T01:58:43.524Z,996.52
2018-05-27T01:59:43.694Z,996.51
2018-05-27T02:00:43.865Z,996.53
2018-05-27T02:01:44.045Z,996.50
2018-05-27T02:02:44.225Z,996.52
2018-05-27T02:03:44.400Z,996.55
2018-05-27T02:04:44.583Z,996.50
2018-05-27T02:05:44.768Z,996.51
2018-05-27T02:06:44.941Z,996.54
2018-05-27T02:07:45.128Z,996.48
2018-05-27T02:08:45.304Z,996.51
2018-05-27T02:09:45.483Z,996.49
2018-05-27T02:10:45.674Z,996.47
2018-05-27T02:11:45.848Z,996.45
2018-05-27T02:12:46.026Z,996.43
2018-05-27T02:13:46.197Z,996.41
2018-05-27T02:14:46.374Z,996.38
2018-05-27T02:15:46.560Z,996.35
2018-05-27T02:16:46.740Z,996.33
2018-05-27T02:17:46.924Z,996.33
2018-05-27T02:18:47.104Z,996.34
2018-05-27T02:19:47.291Z,996.31
2018-05-27T02:20:47.470Z,996.29
2018-05-27T02:21:47.654Z,996.32
2018-05-27T02:22:47.831Z,996.28
2018-05-27T02:23:48.013Z,996.26
2018-05-27T02:24:48.192Z,996.24
2018-05-27T02:25:48.385Z,996.25
2018-05-27T02:26:48.559Z,996.24
2018-05-27T02:27:48.736Z,996.22
2018-05-27T02:28:48.923Z,996.21
2018-05-27T02:29:49.100Z,996.25
2018-05-27T02:30:49.273Z,996.26
2018-05-27T02:31:49.454Z,996.24
2018-05-27T02:32:49.642Z,996.21
2018-05-27T02:33:49.822Z,996.19
2018-05-27T02:34:50.005Z,996.17
2018-05-27T02:35:53.724Z,996.19
2018-05-27T02:36:52.446Z,996.18
2018-05-27T02:37:52.349Z,996.13
2018-05-27T02:38:53.189Z,996.13
2018-05-27T02:39:55.349Z,996.14
2018-05-27T02:40:55.026Z,996.15
2018-05-27T02:41:55.378Z,996.13
2018-05-27T02:42:54.557Z,996.15
2018-05-27T02:43:55.643Z,996.12
2018-05-27T02:44:56.615Z,996.09
2018-05-27T02:45:55.555Z,996.11
2018-05-27T02:46:54.588Z,996.08
2018-05-27T02:47:56.999Z,996.10
2018-05-27T02:48:55.327Z,996.07
2018-05-27T02:49:56.676Z,996.05
2018-05-27T02:50:54.281Z,996.05
2018-05-27T02:51:56.569Z,996.04
2018-05-27T02:52:55.804Z,996.06
2018-05-27T02:53:55.722Z,996.01
2018-05-27T02:54:55.921Z,996.02
2018-05-27T02:55:55.703Z,996.02
2018-05-27T02:56:55.070Z,996.05
2018-05-27T02:57:53.741Z,996.02
2018-05-27T02:58:53.918Z,996.07
2018-05-27T02:59:54.095Z,996.04
2018-05-27T03:00:54.263Z,996.02
2018-05-27T03:01:54.445Z,996.04
2018-05-27T03:02:54.623Z,996.07
2018-05-27T03:03:54.804Z,996.08
2018-05-27T03:04:54.984Z,996.05
2018-05-27T03:05:55.161Z,996.02
2018-05-27T03:06:55.344Z,996.01
2018-05-27T03:07:55.522Z,996.01
2018-05-27T03:08:55.709Z,995.99
2018-05-27T03:09:55.887Z,996.04
2018-05-27T03:10:56.066Z,996.04
2018-05-27T03:11:56.239Z,996.05
2018-05-27T03:12:56.416Z,996.08
2018-05-27T03:13:56.591Z,996.08
2018-05-27T03:14:56.771Z,996.10
2018-05-27T03:15:56.966Z,996.10
2018-05-27T03:16:57.196Z,996.10
2018-05-27T03:17:57.328Z,996.12
2018-05-27T03:18:57.501Z,996.11
2018-05-27T03:19:57.686Z,996.07
2018-05-27T03:20:57.866Z,996.07
2018-05-27T03:21:58.042Z,996.08
2018-05-27T03:22:58.219Z,996.10
2018-05-27T03:23:58.401Z,996.13
2018-05-27T03:24:58.584Z,996.14
2018-05-27T03:25:58.758Z,996.12
2018-05-27T03:26:58.931Z,996.15
2018-05-27T03:27:59.105Z,996.15
2018-05-27T03:28:59.284Z,996.13
2018-05-27T03:29:59.470Z,996.08
2018-05-27T03:30:59.645Z,996.13
2018-05-27T03:31:59.825Z,996.12
2018-05-27T03:33:00.006Z,996.09
2018-05-27T03:34:00.182Z,996.07
2018-05-27T03:35:00.369Z,996.11
2018-05-27T03:36:00.551Z,996.10
2018-05-27T03:37:00.735Z,996.07
2018-05-27T03:38:00.906Z,996.04
2018-05-27T03:39:01.097Z,996.09
2018-05-27T03:40:01.278Z,996.06
2018-05-27T03:41:01.452Z,996.08
2018-05-27T03:42:01.627Z,996.09
2018-05-27T03:43:01.802Z,996.07
2018-05-27T03:44:01.979Z,996.08
2018-05-27T03:45:02.161Z,996.12
2018-05-27T03:46:02.346Z,996.11
2018-05-27T03:47:02.528Z,996.05
2018-05-27T03:48:02.715Z,996.10
2018-05-27T03:49:02.887Z,996.07
2018-05-27T03:50:03.074Z,996.10
2018-05-27T03:51:03.260Z,996.10
2018-05-27T03:52:03.441Z,996.05
2018-05-27T03:53:03.621Z,996.10
2018-05-27T03:54:03.802Z,996.14
2018-05-27T03:55:03.984Z,996.14
2018-05-27T03:56:04.160Z,996.17
2018-05-27T03:57:04.331Z,996.16
2018-05-27T03:58:04.508Z,996.19
2018-05-27T03:59:04.680Z,996.18
2018-05-27T04:00:04.864Z,996.19
2018-05-27T04:01:05.051Z,996.22
2018-05-27T04:02:05.224Z,996.25
2018-05-27T04:03:05.408Z,996.26
2018-05-27T04:04:05.584Z,996.27
2018-05-27T04:05:05.768Z,996.24
2018-05-27T04:06:05.941Z,996.19
2018-05-27T04:07:06.128Z,996.18
2018-05-27T04:08:06.308Z,996.15
2018-05-27T04:09:06.489Z,996.17
2018-05-27T04:10:06.669Z,996.16
2018-05-27T04:11:06.845Z,996.16
2018-05-27T04:12:07.023Z,996.19
2018-05-27T04:13:07.192Z,996.18
2018-05-27T04:14:07.375Z,996.23
2018-05-27T04:15:07.553Z,996.24
2018-05-27T04:16:07.747Z,996.25
2018-05-27T04:17:07.921Z,996.24
2018-05-27T04:18:08.105Z,996.25
2018-05-27T04:19:08.299Z,996.28
2018-05-27T04:20:08.474Z,996.28
2018-05-27T04:21:08.649Z,996.27
2018-05-27T04:22:08.830Z,996.27
2018-05-27T04:23:09.022Z,996.27
2018-05-27T04:24:09.270Z,996.24
2018-05-27T04:25:09.316Z,996.29
2018-05-27T04:26:09.499Z,996.29
2018-05-27T04:27:09.682Z,996.30
2018-05-27T04:28:09.852Z,996.30
2018-05-27T04:29:10.033Z,996.33
2018-05-27T04:30:10.210Z,996.33
2018-05-27T04:31:10.386Z,996.31
2018-05-27T04:32:10.570Z,996.31
2018-05-27T04:33:10.748Z,996.25
2018-05-27T04:34:12.734Z,996.31
2018-05-27T04:35:11.079Z,996.25
2018-05-27T04:36:11.263Z,996.25
2018-05-27T04:37:11.446Z,996.22
2018-05-27T04:38:11.626Z,996.26
2018-05-27T04:39:11.803Z,996.24
2018-05-27T04:40:11.986Z,996.26
2018-05-27T04:41:12.157Z,996.23
2018-05-27T04:42:12.338Z,996.24
2018-05-27T04:43:12.524Z,996.24
2018-05-27T04:44:12.704Z,996.27
2018-05-27T04:45:12.877Z,996.27
2018-05-27T04:46:13.062Z,996.26
2018-05-27T04:47:13.248Z,996.22
2018-05-27T04:48:13.439Z,996.22
2018-05-27T04:49:13.621Z,996.24
2018-05-27T04:50:13.809Z,996.19
2018-05-27T04:51:13.984Z,996.19
2018-05-27T04:52:14.172Z,996.21
2018-05-27T04:53:14.596Z,996.19
2018-05-27T04:54:14.659Z,996.19
2018-05-27T04:55:14.895Z,996.18
2018-05-27T04:56:14.787Z,996.22
2018-05-27T04:57:14.968Z,996.24
2018-05-27T04:58:15.145Z,996.21
2018-05-27T04:59:15.326Z,996.25
2018-05-27T05:00:15.514Z,996.26
2018-05-27T05:01:15.697Z,996.30
2018-05-27T05:02:15.887Z,996.29
2018-05-27T05:03:16.075Z,996.30
2018-05-27T05:04:16.276Z,996.32
2018-05-27T05:05:16.590Z,996.33
2018-05-27T05:06:16.897Z,996.36
2018-05-27T05:07:16.856Z,996.34
2018-05-27T05:08:17.042Z,996.38
2018-05-27T05:09:17.220Z,996.38
2018-05-27T05:10:17.402Z,996.36
2018-05-27T05:11:17.579Z,996.38
2018-05-27T05:12:18.103Z,996.35
2018-05-27T05:13:17.899Z,996.37
2018-05-27T05:14:18.081Z,996.37
2018-05-27T05:15:18.261Z,996.39
2018-05-27T05:16:18.439Z,996.37
2018-05-27T05:17:18.626Z,996.41
2018-05-27T05:18:18.827Z,996.44
2018-05-27T05:19:19.008Z,996.49
2018-05-27T05:20:19.191Z,996.46
2018-05-27T05:21:19.384Z,996.46
2018-05-27T05:22:19.567Z,996.50
2018-05-27T05:23:19.755Z,996.47
2018-05-27T05:24:19.959Z,996.47
2018-05-27T05:25:20.100Z,996.51
2018-05-27T05:26:20.280Z,996.50
2018-05-27T05:27:20.474Z,996.52
2018-05-27T05:28:20.651Z,996.49
2018-05-27T05:29:20.835Z,996.48
2018-05-27T05:30:21.024Z,996.54
2018-05-27T05:31:21.215Z,996.49
2018-05-27T05:32:21.393Z,996.50
2018-05-27T05:33:21.582Z,996.48
2018-05-27T05:34:21.765Z,996.43
2018-05-27T05:35:21.935Z,996.42
2018-05-27T05:36:22.152Z,996.45
2018-05-27T05:37:22.303Z,996.44
2018-05-27T05:38:22.480Z,996.44
2018-05-27T05:39:22.658Z,996.41
2018-05-27T05:40:22.842Z,996.41
2018-05-27T05:41:23.036Z,996.43
2018-05-27T05:42:23.217Z,996.46
2018-05-27T05:43:23.402Z,996.43
2018-05-27T05:44:23.586Z,996.45
2018-05-27T05:45:23.768Z,996.44
2018-05-27T05:46:23.958Z,996.46
2018-05-27T05:47:24.138Z,996.46
2018-05-27T05:48:24.323Z,996.47
2018-05-27T05:49:24.513Z,996.48
2018-05-27T05:50:24.696Z,996.41
2018-05-27T05:51:24.879Z,996.46
2018-05-27T05:52:25.057Z,996.49
2018-05-27T05:53:25.241Z,996.50
2018-05-27T05:54:25.453Z,996.52
2018-05-27T05:55:25.595Z,996.53
2018-05-27T05:56:25.773Z,996.57
2018-05-27T05:57:25.953Z,996.53
2018-05-27T05:58:26.128Z,996.53
2018-05-27T05:59:26.306Z,996.57
2018-05-27T06:00:26.500Z,996.54
2018-05-27T06:01:26.683Z,996.56
2018-05-27T06:02:26.872Z,996.56
2018-05-27T06:03:27.061Z,996.57
2018-05-27T06:04:27.236Z,996.64
2018-05-27T06:05:27.425Z,996.62
2018-05-27T06:06:27.607Z,996.76
2018-05-27T06:07:32.640Z,996.66
2018-05-27T06:08:32.159Z,997.52
2018-05-27T06:09:33.123Z,997.10
2018-05-27T06:10:29.293Z,997.18
2018-05-27T06:11:28.472Z,997.38
2018-05-27T06:12:28.648Z,996.94
2018-05-27T06:13:28.863Z,996.83
2018-05-27T06:14:29.016Z,996.83
2018-05-27T06:15:29.198Z,996.84
2018-05-27T06:16:29.387Z,996.81
2018-05-27T06:17:29.573Z,996.86
2018-05-27T06:18:29.755Z,997.28
2018-05-27T06:19:29.941Z,997.75
2018-05-27T06:20:30.119Z,997.86
2018-05-27T06:21:30.307Z,997.91
2018-05-27T06:22:30.496Z,997.94
2018-05-27T06:23:30.672Z,997.93
2018-05-27T06:24:30.857Z,998.05
2018-05-27T06:25:31.039Z,998.14
2018-05-27T06:26:31.228Z,998.13
2018-05-27T06:27:31.414Z,998.17
2018-05-27T06:28:37.498Z,998.11
2018-05-27T06:29:34.735Z,998.08
2018-05-27T06:30:31.913Z,998.04
2018-05-27T06:31:32.097Z,997.90
2018-05-27T06:32:32.282Z,998.01
2018-05-27T06:33:32.475Z,997.94
2018-05-27T06:34:32.710Z,998.15
2018-05-27T06:35:32.857Z,998.20
2018-05-27T06:36:33.050Z,998.10
2018-05-27T06:37:33.241Z,997.75
2018-05-27T06:38:33.424Z,997.25
2018-05-27T06:39:33.615Z,997.33
2018-05-27T06:40:33.797Z,997.56
2018-05-27T06:41:33.986Z,997.29
2018-05-27T06:42:34.179Z,997.77
2018-05-27T06:43:34.385Z,997.61
2018-05-27T06:44:34.552Z,997.96
2018-05-27T06:45:34.739Z,998.11
2018-05-27T06:46:34.957Z,998.11
2018-05-27T06:47:35.139Z,998.10
2018-05-27T06:48:35.332Z,998.09
2018-05-27T06:49:35.531Z,998.12
2018-05-27T06:50:35.717Z,997.97
2018-05-27T06:51:35.909Z,997.98
2018-05-27T06:52:36.127Z,998.02
2018-05-27T06:53:36.210Z,998.04
2018-05-27T06:54:36.415Z,997.96
2018-05-27T06:55:36.637Z,997.99
2018-05-27T06:56:36.800Z,997.96
2018-05-27T06:57:36.986Z,997.93
2018-05-27T06:58:37.176Z,997.93
2018-05-27T06:59:37.398Z,997.97
2018-05-27T07:00:37.583Z,997.93
2018-05-27T07:01:37.823Z,997.93
2018-05-27T07:02:37.984Z,997.86
2018-05-27T07:03:38.173Z,997.76
2018-05-27T07:04:38.431Z,997.76
2018-05-27T07:05:38.562Z,997.79
2018-05-27T07:06:38.764Z,997.79
2018-05-27T07:07:38.954Z,997.74
2018-05-27T07:08:39.145Z,997.71
2018-05-27T07:09:39.327Z,997.72
2018-05-27T07:10:39.516Z,997.71
2018-05-27T07:11:39.766Z,997.55
2018-05-27T07:12:39.892Z,997.50
2018-05-27T07:13:40.079Z,997.67
2018-05-27T07:14:40.277Z,997.60
2018-05-27T07:15:40.476Z,997.76
2018-05-27T07:16:40.719Z,997.83
2018-05-27T07:17:40.811Z,997.69
2018-05-27T07:18:41.003Z,997.71
2018-05-27T07:19:41.198Z,997.60
2018-05-27T07:20:41.399Z,997.68
2018-05-27T07:21:41.591Z,997.68
2018-05-27T07:22:41.781Z,997.63
2018-05-27T07:23:41.984Z,997.66
2018-05-27T07:24:42.290Z,997.73
2018-05-27T07:25:42.327Z,997.70
2018-05-27T07:26:42.515Z,997.75
2018-05-27T07:27:42.735Z,997.77
2018-05-27T07:28:42.942Z,997.76
2018-05-27T07:29:43.147Z,997.79
2018-05-27T07:30:43.383Z,997.70
2018-05-27T07:31:43.533Z,997.77
2018-05-27T07:32:43.726Z,997.62
2018-05-27T07:33:43.924Z,997.60
2018-05-27T07:34:44.249Z,997.70
2018-05-27T07:35:44.320Z,997.68
2018-05-27T07:36:44.511Z,997.74
2018-05-27T07:37:44.752Z,997.70
2018-05-27T07:38:44.961Z,997.56
2018-05-27T07:39:45.254Z,997.49
2018-05-27T07:40:45.770Z,997.46
2018-05-27T07:41:45.452Z,997.38
2018-05-27T07:42:45.672Z,997.46
2018-05-27T07:43:45.873Z,997.50
2018-05-27T07:44:46.117Z,997.53
2018-05-27T07:45:46.290Z,997.35
2018-05-27T07:46:46.486Z,997.34
2018-05-27T07:47:46.687Z,997.29
2018-05-27T07:48:47.759Z,997.29
2018-05-27T07:49:47.043Z,997.03
2018-05-27T07:50:47.482Z,997.06
2018-05-27T07:51:47.813Z,996.92
2018-05-27T07:52:47.616Z,996.86
2018-05-27T07:53:47.842Z,996.89
2018-05-27T07:54:48.034Z,996.89
2018-05-27T07:55:48.246Z,996.97
2018-05-27T07:56:48.435Z,996.93
2018-05-27T07:57:48.632Z,996.79
2018-05-27T07:58:48.821Z,996.90
2018-05-27T07:59:49.024Z,996.73
2018-05-27T08:00:49.231Z,996.71
2018-05-27T08:01:49.438Z,996.70
2018-05-27T08:02:49.620Z,996.70
2018-05-27T08:03:49.832Z,996.64
2018-05-27T08:04:50.039Z,996.61
2018-05-27T08:05:50.457Z,996.55
2018-05-27T08:06:50.413Z,996.53
2018-05-27T08:07:50.596Z,996.48
2018-05-27T08:08:50.797Z,996.48
2018-05-27T08:09:50.995Z,996.47
2018-05-27T08:10:51.176Z,996.51
2018-05-27T08:11:51.373Z,996.48
2018-05-27T08:12:51.805Z,996.46
2018-05-27T08:13:52.001Z,996.44
2018-05-27T08:14:52.202Z,996.42
2018-05-27T08:15:52.424Z,996.41
2018-05-27T08:16:52.649Z,996.41
2018-05-27T08:17:52.870Z,996.43
2018-05-27T08:18:52.991Z,996.43
2018-05-27T08:19:53.195Z,996.40
2018-05-27T08:20:53.408Z,996.38
2018-05-27T08:21:53.271Z,996.44
2018-05-27T08:22:53.536Z,996.46
2018-05-27T08:23:54.027Z,996.41
2018-05-27T08:24:54.230Z,996.42
2018-05-27T08:25:54.491Z,996.41
2018-05-27T08:28:27.325Z,996.44
2018-05-27T08:29:27.116Z,996.41
2018-05-27T08:30:27.354Z,996.42
2018-05-27T08:31:27.412Z,996.43
2018-05-27T08:32:27.729Z,996.43
2018-05-27T08:33:27.828Z,996.46
2018-05-27T08:34:28.153Z,996.48
2018-05-27T08:35:28.234Z,996.50
2018-05-27T08:36:27.901Z,996.53
2018-05-27T08:37:28.307Z,996.49
2018-05-27T08:38:29.153Z,996.53
2018-05-27T08:39:28.707Z,996.62
2018-05-27T08:40:28.871Z,996.56
2018-05-27T08:41:28.924Z,996.62
2018-05-27T08:42:29.282Z,996.65
2018-05-27T08:43:29.605Z,996.70
2018-05-27T08:44:29.627Z,996.72
2018-05-27T08:45:29.704Z,996.73
2018-05-27T08:46:29.932Z,996.90
2018-05-27T08:47:29.913Z,997.19
2018-05-27T08:48:30.146Z,997.21
2018-05-27T08:49:30.325Z,996.90
2018-05-27T08:50:30.507Z,996.87
2018-05-27T08:51:30.700Z,996.96
2018-05-27T08:52:30.883Z,996.90
2018-05-27T08:53:31.070Z,996.96
2018-05-27T08:54:31.249Z,996.91
2018-05-27T08:55:31.446Z,996.88
2018-05-27T08:56:31.622Z,996.95
2018-05-27T08:57:31.815Z,997.00
2018-05-27T08:58:32.005Z,997.11
2018-05-27T08:59:32.181Z,997.19
2018-05-27T09:00:32.366Z,997.14
2018-05-27T09:01:32.581Z,997.02
2018-05-27T09:02:32.735Z,997.03
2018-05-27T09:03:32.919Z,997.24
2018-05-27T09:04:33.106Z,997.11
2018-05-27T09:05:33.295Z,996.98
2018-05-27T09:06:33.484Z,996.92
2018-05-27T09:07:33.665Z,997.07
2018-05-27T09:08:33.873Z,997.06
2018-05-27T09:09:34.064Z,997.24
2018-05-27T09:10:34.249Z,997.21
2018-05-27T09:11:34.435Z,997.44
2018-05-27T09:12:34.618Z,997.45
2018-05-27T09:13:34.809Z,997.49
2018-05-27T09:14:34.999Z,997.42
2018-05-27T09:15:35.183Z,997.44
2018-05-27T09:16:35.367Z,997.40
2018-05-27T09:17:35.559Z,997.40
2018-05-27T09:18:35.752Z,997.39
2018-05-27T09:19:35.946Z,997.39
2018-05-27T09:20:36.131Z,997.37
2018-05-27T09:21:36.325Z,997.35
2018-05-27T09:22:36.510Z,997.27
2018-05-27T09:23:36.726Z,997.25
2018-05-27T09:24:36.912Z,997.38
2018-05-27T09:25:37.097Z,997.34
2018-05-27T09:26:37.383Z,997.27
2018-05-27T09:27:37.480Z,997.32
2018-05-27T09:28:37.659Z,997.27
2018-05-27T09:29:37.873Z,997.33
2018-05-27T09:30:38.068Z,997.31
2018-05-27T09:31:38.361Z,997.24
2018-05-27T09:32:38.416Z,997.21
2018-05-27T09:33:38.619Z,997.13
2018-05-27T09:34:38.808Z,997.16
2018-05-27T09:35:39.055Z,997.09
2018-05-27T09:36:39.343Z,997.09
2018-05-27T09:37:40.167Z,997.07
2018-05-27T09:38:39.503Z,997.08
2018-05-27T09:39:39.728Z,997.18
2018-05-27T09:40:39.910Z,997.04
2018-05-27T09:41:40.092Z,997.19
2018-05-27T09:42:40.313Z,996.92
2018-05-27T09:43:40.502Z,997.08
2018-05-27T09:44:40.686Z,997.05
2018-05-27T09:45:40.873Z,996.97
2018-05-27T09:46:41.064Z,996.94
2018-05-27T09:47:41.259Z,996.99
2018-05-27T09:48:41.453Z,996.99
2018-05-27T09:49:41.658Z,997.05
2018-05-27T09:50:41.872Z,997.16
2018-05-27T09:51:42.097Z,997.08
2018-05-27T09:52:42.299Z,997.21
2018-05-27T09:53:42.567Z,997.14
2018-05-27T09:54:42.633Z,997.14
2018-05-27T09:55:42.833Z,997.14
2018-05-27T09:56:43.016Z,997.18
2018-05-27T09:57:43.217Z,997.11
2018-05-27T09:58:43.402Z,997.10
2018-05-27T09:59:43.588Z,997.11
2018-05-27T10:00:43.781Z,997.09
2018-05-27T10:01:44.023Z,997.04
2018-05-27T10:02:44.166Z,997.02
2018-05-27T10:03:44.359Z,997.03
2018-05-27T10:04:44.552Z,997.02
2018-05-27T10:05:48.028Z,996.91
2018-05-27T10:06:44.917Z,996.82
2018-05-27T10:07:45.098Z,996.88
2018-05-27T10:08:45.547Z,996.85
2018-05-27T10:09:45.838Z,996.83
2018-05-27T10:10:45.995Z,996.82
2018-05-27T10:11:46.150Z,996.78
2018-05-27T10:12:45.965Z,996.75
2018-05-27T10:13:46.107Z,996.70
2018-05-27T10:14:46.290Z,996.64
2018-05-27T10:15:46.477Z,996.58
2018-05-27T10:16:46.672Z,996.52
2018-05-27T10:17:46.855Z,996.46
2018-05-27T10:18:47.433Z,996.41
2018-05-27T10:19:47.207Z,996.39
2018-05-27T10:20:47.439Z,996.37
2018-05-27T10:21:47.744Z,996.31
2018-05-27T10:22:47.888Z,996.30
2018-05-27T10:23:48.044Z,996.25
2018-05-27T10:24:48.227Z,996.20
2018-05-27T10:25:48.433Z,996.17
2018-05-27T10:26:48.599Z,996.19
2018-05-27T10:27:48.789Z,996.17
2018-05-27T10:28:48.981Z,996.15
2018-05-27T10:29:49.176Z,996.14
2018-05-27T10:30:49.361Z,996.16
2018-05-27T10:31:49.550Z,996.09
2018-05-27T10:32:49.786Z,996.08
2018-05-27T10:33:49.934Z,996.12
2018-05-27T10:34:50.123Z,996.13
2018-05-27T10:35:50.305Z,996.09
2018-05-27T10:36:50.535Z,996.10
2018-05-27T10:37:50.759Z,996.07
2018-05-27T10:38:50.844Z,996.07
2018-05-27T10:39:51.035Z,996.06
2018-05-27T10:40:51.218Z,996.11
2018-05-27T10:41:51.404Z,996.10
2018-05-27T10:42:51.591Z,996.09
2018-05-27T10:43:51.780Z,996.07
2018-05-27T10:44:51.966Z,996.05
2018-05-27T10:45:52.151Z,996.05
2018-05-27T10:46:52.335Z,996.06
2018-05-27T10:47:52.538Z,995.99
2018-05-27T10:48:52.727Z,995.99
2018-05-27T10:49:52.906Z,996.09
2018-05-27T10:50:53.097Z,996.06
2018-05-27T10:51:53.285Z,996.02
2018-05-27T10:52:53.469Z,996.01
2018-05-27T10:53:53.665Z,995.99
2018-05-27T10:54:53.851Z,995.91
2018-05-27T10:55:54.104Z,995.90
2018-05-27T10:56:54.281Z,995.91
2018-05-27T10:57:54.449Z,995.90
2018-05-27T10:58:54.648Z,995.88
2018-05-27T10:59:54.873Z,995.81
2018-05-27T11:00:55.012Z,995.81
2018-05-27T11:01:55.202Z,995.79
2018-05-27T11:02:55.388Z,995.75
2018-05-27T11:03:55.571Z,995.69
2018-05-27T11:04:55.755Z,995.71
2018-05-27T11:05:55.996Z,995.67
2018-05-27T11:06:56.129Z,995.72
2018-05-27T11:07:56.329Z,995.65
2018-05-27T11:08:57.063Z,995.62
2018-05-27T11:09:56.638Z,995.55
2018-05-27T11:10:56.822Z,995.55
2018-05-27T11:11:57.017Z,995.53
2018-05-27T11:12:57.196Z,995.46
2018-05-27T11:13:57.380Z,995.47
2018-05-27T11:14:57.561Z,995.46
2018-05-27T11:15:57.743Z,995.45
2018-05-27T11:16:57.930Z,995.44
2018-05-27T11:17:58.115Z,995.42
2018-05-27T11:18:58.296Z,995.45
2018-05-27T11:19:58.483Z,995.43
2018-05-27T11:20:58.672Z,995.43
2018-05-27T11:21:58.855Z,995.43
2018-05-27T11:22:59.040Z,995.48
2018-05-27T11:23:59.218Z,995.47
2018-05-27T11:24:59.403Z,995.43
2018-05-27T11:25:59.590Z,995.40
2018-05-27T11:26:59.793Z,995.37
2018-05-27T11:27:59.979Z,995.36
2018-05-27T11:29:00.163Z,995.37
2018-05-27T11:30:00.347Z,995.32
2018-05-27T11:31:00.529Z,995.32
2018-05-27T11:32:00.983Z,995.31
2018-05-27T11:33:01.221Z,995.31
2018-05-27T11:34:01.458Z,995.31
2018-05-27T11:35:01.578Z,995.28
2018-05-27T11:36:01.705Z,995.30
2018-05-27T11:37:01.819Z,995.31
2018-05-27T11:38:02.020Z,995.24
2018-05-27T11:39:02.426Z,995.20
2018-05-27T11:40:04.414Z,995.23
2018-05-27T11:41:03.639Z,995.24
2018-05-27T11:42:02.750Z,995.22
2018-05-27T11:43:03.070Z,995.18
2018-05-27T11:44:04.511Z,995.16
2018-05-27T11:45:03.433Z,995.12
2018-05-27T11:46:03.610Z,995.10
2018-05-27T11:47:03.515Z,995.09
2018-05-27T11:48:03.864Z,995.08
2018-05-27T11:49:05.821Z,995.05
2018-05-27T11:50:04.310Z,995.00
2018-05-27T11:51:04.145Z,995.04
2018-05-27T11:52:04.266Z,995.08
2018-05-27T11:53:04.507Z,995.01
2018-05-27T11:54:04.621Z,995.02
2018-05-27T11:55:04.790Z,994.97
2018-05-27T11:56:04.928Z,994.98
2018-05-27T11:57:05.082Z,994.99
2018-05-27T11:58:05.218Z,994.98
2018-05-27T11:59:05.310Z,994.99
2018-05-27T12:00:05.629Z,995.00
2018-05-27T12:01:05.750Z,995.04
2018-05-27T12:02:05.941Z,995.07
2018-05-27T12:03:06.057Z,995.08
2018-05-27T12:04:06.186Z,995.04
2018-05-27T12:05:08.242Z,995.02
2018-05-27T12:06:06.756Z,995.04
2018-05-27T12:07:06.806Z,995.03
2018-05-27T12:08:07.035Z,995.04
2018-05-27T12:09:07.232Z,995.01
2018-05-27T12:10:07.358Z,994.97
2018-05-27T12:11:07.452Z,994.97
2018-05-27T12:12:07.651Z,994.94
2018-05-27T12:13:07.767Z,994.93
2018-05-27T12:14:07.987Z,994.94
2018-05-27T12:15:08.247Z,994.92
2018-05-27T12:16:08.363Z,994.91
2018-05-27T12:17:08.407Z,994.81
2018-05-27T12:18:08.623Z,994.83
2018-05-27T12:19:08.804Z,994.78
2018-05-27T12:20:09.209Z,994.79
2018-05-27T12:21:09.254Z,994.82
2018-05-27T12:22:09.174Z,994.84
2018-05-27T12:23:09.586Z,994.84
2018-05-27T12:24:09.977Z,994.87
2018-05-27T12:25:10.119Z,994.85
2018-05-27T12:26:10.308Z,994.86
2018-05-27T12:27:10.853Z,994.86
2018-05-27T12:28:10.835Z,994.86
2018-05-27T12:29:10.514Z,994.84
2018-05-27T12:30:10.702Z,994.84
2018-05-27T12:31:10.881Z,994.81
2018-05-27T12:32:11.071Z,994.81